createdAt,value
2024-04-26T00:00:40.516Z,2.71
2024-04-26T00:03:07.417Z,2.68
2024-04-26T00:05:34.282Z,2.79
2024-04-26T00:08:01.114Z,2.72
2024-04-26T00:10:28.038Z,2.62
2024-04-26T00:12:55.143Z,2.54
2024-04-26T00:15:21.999Z,2.48
2024-04-26T00:17:48.912Z,2.42
2024-04-26T00:20:15.944Z,2.46
2024-04-26T00:22:42.785Z,2.38
2024-04-26T00:25:09.578Z,2.30
2024-04-26T00:27:36.374Z,2.39
2024-04-26T00:30:03.384Z,2.44
2024-04-26T00:32:30.475Z,2.46
2024-04-26T00:34:57.410Z,2.43
2024-04-26T00:37:24.226Z,2.34
2024-04-26T00:39:51.011Z,2.30
2024-04-26T00:42:18.630Z,2.18
2024-04-26T00:44:45.522Z,1.98
2024-04-26T00:47:12.562Z,2.10
2024-04-26T00:49:39.881Z,2.26
2024-04-26T00:52:06.703Z,2.35
2024-04-26T00:54:33.672Z,2.38
2024-04-26T00:57:02.353Z,2.36
2024-04-26T00:59:30.416Z,2.42
2024-04-26T01:01:57.492Z,2.46
2024-04-26T01:04:24.392Z,2.47
2024-04-26T01:06:51.228Z,2.57
2024-04-26T01:09:19.361Z,2.56
2024-04-26T01:11:46.464Z,2.54
2024-04-26T01:14:13.279Z,2.49
2024-04-26T01:16:40.103Z,2.55
2024-04-26T01:19:15.062Z,2.60
2024-04-26T01:21:43.037Z,2.65
2024-04-26T01:24:12.801Z,2.66
2024-04-26T01:26:39.613Z,2.60
2024-04-26T01:29:06.502Z,2.63
2024-04-26T01:31:33.263Z,2.63
2024-04-26T01:33:59.999Z,2.55
2024-04-26T01:36:26.729Z,2.55
2024-04-26T01:38:53.555Z,2.55
2024-04-26T01:41:20.364Z,2.62
2024-04-26T01:43:47.159Z,2.63
2024-04-26T01:46:14.009Z,2.43
2024-04-26T01:48:40.860Z,2.42
2024-04-26T01:51:07.728Z,2.44
2024-04-26T01:53:34.502Z,2.19
2024-04-26T01:56:01.272Z,2.00
2024-04-26T01:58:28.021Z,1.92
2024-04-26T02:00:54.756Z,1.72
2024-04-26T02:03:22.545Z,1.77
2024-04-26T02:05:49.399Z,1.88
2024-04-26T02:08:16.152Z,2.00
2024-04-26T02:10:42.975Z,2.10
2024-04-26T02:13:09.770Z,2.19
2024-04-26T02:15:36.555Z,2.14
2024-04-26T02:18:03.482Z,2.18
2024-04-26T02:20:30.296Z,2.25
2024-04-26T02:22:57.089Z,2.32
2024-04-26T02:25:23.840Z,2.49
2024-04-26T02:27:50.605Z,2.56
2024-04-26T02:30:17.421Z,2.63
2024-04-26T02:32:44.411Z,2.65
2024-04-26T02:35:11.294Z,2.62
2024-04-26T02:37:38.079Z,2.78
2024-04-26T02:40:05.192Z,2.78
2024-04-26T02:42:31.899Z,2.83
2024-04-26T02:44:58.692Z,2.82
2024-04-26T02:47:26.952Z,2.73
2024-04-26T02:49:53.774Z,2.75
2024-04-26T02:52:20.606Z,2.80
2024-04-26T02:54:47.516Z,2.88
2024-04-26T02:57:16.948Z,2.85
2024-04-26T02:59:43.785Z,2.92
2024-04-26T03:02:15.212Z,2.91
2024-04-26T03:04:42.047Z,2.90
2024-04-26T03:07:11.724Z,2.95
2024-04-26T03:09:41.863Z,2.97
2024-04-26T03:12:08.815Z,2.98
2024-04-26T03:14:35.701Z,3.05
2024-04-26T03:17:03.121Z,3.03
2024-04-26T03:19:29.877Z,3.05
2024-04-26T03:21:56.686Z,3.06
2024-04-26T03:24:23.685Z,3.07
2024-04-26T03:26:50.620Z,2.93
2024-04-26T03:29:17.478Z,2.93
2024-04-26T03:31:44.330Z,3.00
2024-04-26T03:34:11.165Z,3.01
2024-04-26T03:36:37.930Z,3.04
2024-04-26T03:39:04.827Z,3.09
2024-04-26T03:41:31.644Z,3.15
2024-04-26T03:43:58.412Z,3.09
2024-04-26T03:46:25.201Z,2.99
2024-04-26T03:48:52.045Z,2.89
2024-04-26T03:51:18.949Z,2.83
2024-04-26T03:53:45.777Z,2.78
2024-04-26T03:56:12.719Z,2.72
2024-04-26T03:58:41.511Z,2.73
2024-04-26T04:01:08.435Z,2.75
2024-04-26T04:03:35.431Z,2.73
2024-04-26T04:06:02.378Z,2.75
2024-04-26T04:08:29.190Z,2.85
2024-04-26T04:10:56.033Z,2.87
2024-04-26T04:13:22.831Z,2.88
2024-04-26T04:15:49.558Z,2.87
2024-04-26T04:18:16.546Z,2.84
2024-04-26T04:20:43.454Z,2.90
2024-04-26T04:23:10.261Z,2.92
2024-04-26T04:25:38.109Z,3.03
2024-04-26T04:28:05.228Z,3.15
2024-04-26T04:30:31.976Z,3.23
2024-04-26T04:32:59.410Z,3.33
2024-04-26T04:35:26.489Z,3.41
2024-04-26T04:37:53.345Z,3.43
2024-04-26T04:40:20.191Z,3.44
2024-04-26T04:42:47.083Z,3.52
2024-04-26T04:45:14.051Z,3.61
2024-04-26T04:47:41.129Z,3.71
2024-04-26T04:50:08.078Z,3.79
2024-04-26T04:52:34.886Z,3.84
2024-04-26T04:55:01.741Z,3.92
2024-04-26T04:57:28.519Z,3.97
2024-04-26T04:59:55.337Z,4.07
2024-04-26T05:02:22.205Z,4.20
2024-04-26T05:04:53.882Z,4.33
2024-04-26T05:07:20.731Z,4.51
2024-04-26T05:09:48.222Z,4.64
2024-04-26T05:12:15.800Z,4.82
2024-04-26T05:17:35.263Z,5.10
2024-04-26T05:20:02.474Z,5.16
2024-04-26T05:22:29.195Z,5.24
2024-04-26T05:24:56.476Z,5.46
2024-04-26T05:27:23.226Z,5.65
2024-04-26T05:29:50.123Z,5.81
2024-04-26T05:32:17.032Z,5.86
2024-04-26T05:34:47.173Z,5.89
2024-04-26T05:37:14.406Z,5.89
2024-04-26T05:39:41.347Z,6.01
2024-04-26T05:42:08.213Z,6.18
2024-04-26T05:44:35.170Z,6.35
2024-04-26T05:47:02.005Z,6.54
2024-04-26T05:49:28.995Z,6.54
2024-04-26T05:51:55.881Z,6.67
2024-04-26T05:54:23.223Z,6.74
2024-04-26T05:56:50.134Z,6.76
2024-04-26T05:59:19.118Z,6.91
2024-04-26T06:01:45.922Z,6.97
2024-04-26T06:04:15.322Z,7.00
2024-04-26T06:06:46.053Z,7.06
2024-04-26T06:09:13.083Z,7.08
2024-04-26T06:11:39.966Z,7.18
2024-04-26T06:14:06.785Z,7.27
2024-04-26T06:16:33.586Z,7.37
2024-04-26T06:19:00.501Z,7.49
2024-04-26T06:21:27.768Z,7.51
2024-04-26T06:23:54.778Z,7.51
2024-04-26T06:26:21.686Z,7.62
2024-04-26T06:28:51.304Z,7.75
2024-04-26T06:31:19.062Z,7.92
2024-04-26T06:33:46.073Z,7.98
2024-04-26T06:36:13.149Z,7.95
2024-04-26T06:38:40.042Z,8.10
2024-04-26T06:41:06.898Z,8.11
2024-04-26T06:43:33.853Z,8.26
2024-04-26T06:46:00.991Z,8.48
2024-04-26T06:48:28.200Z,8.68
2024-04-26T06:50:55.228Z,8.69
2024-04-26T06:53:22.058Z,8.70
2024-04-26T06:55:48.820Z,8.84
2024-04-26T06:58:15.615Z,9.03
2024-04-26T07:00:42.360Z,9.13
2024-04-26T07:03:09.508Z,9.18
2024-04-26T07:05:36.594Z,9.37
2024-04-26T07:08:03.457Z,9.39
2024-04-26T07:10:30.206Z,9.58
2024-04-26T07:12:56.968Z,9.98
2024-04-26T07:15:23.719Z,10.17
2024-04-26T07:17:52.305Z,10.38
2024-04-26T07:20:19.219Z,10.57
2024-04-26T07:22:57.040Z,10.92
2024-04-26T07:25:29.852Z,11.25
2024-04-26T07:27:56.798Z,11.45
2024-04-26T07:30:23.621Z,11.75
2024-04-26T07:32:50.639Z,11.92
2024-04-26T07:35:17.555Z,12.04
2024-04-26T07:37:44.316Z,12.21
2024-04-26T07:40:11.424Z,12.21
2024-04-26T07:42:38.299Z,12.35
2024-04-26T07:45:05.406Z,12.49
2024-04-26T07:47:32.390Z,12.65
2024-04-26T07:49:59.379Z,12.75
2024-04-26T07:52:26.300Z,12.84
2024-04-26T07:54:56.389Z,12.75
2024-04-26T07:57:26.508Z,12.81
2024-04-26T07:59:54.149Z,12.97
2024-04-26T08:02:21.054Z,13.12
2024-04-26T08:04:47.911Z,13.30
2024-04-26T08:07:16.538Z,13.44
2024-04-26T08:09:43.587Z,13.62
2024-04-26T08:12:11.551Z,13.59
2024-04-26T08:14:38.577Z,13.64
2024-04-26T08:17:05.547Z,13.67
2024-04-26T08:19:32.466Z,13.69
2024-04-26T08:21:59.290Z,13.68
2024-04-26T08:24:26.055Z,13.78
2024-04-26T08:26:52.837Z,13.68
2024-04-26T08:29:19.733Z,13.71
2024-04-26T08:31:47.596Z,13.87
2024-04-26T08:34:14.745Z,14.07
2024-04-26T08:36:42.253Z,14.30
2024-04-26T08:39:09.523Z,14.36
2024-04-26T08:41:36.536Z,14.50
2024-04-26T08:44:03.740Z,14.42
2024-04-26T08:46:40.962Z,14.43
2024-04-26T08:49:18.561Z,14.41
2024-04-26T08:51:51.514Z,14.42
2024-04-26T08:54:19.859Z,14.45
2024-04-26T08:56:51.975Z,14.60
2024-04-26T08:59:20.836Z,14.62
2024-04-26T09:01:48.905Z,14.70
2024-04-26T09:04:15.919Z,14.79
2024-04-26T09:06:42.781Z,14.91
2024-04-26T09:09:09.586Z,15.01
2024-04-26T09:11:37.328Z,15.14
2024-04-26T09:14:04.644Z,15.16
2024-04-26T09:16:33.931Z,15.11
2024-04-26T09:19:01.147Z,15.20
2024-04-26T09:21:28.350Z,15.15
2024-04-26T09:23:55.329Z,15.19
2024-04-26T09:26:26.604Z,15.31
2024-04-26T09:28:53.379Z,15.35
2024-04-26T09:31:21.003Z,15.49
2024-04-26T09:33:52.088Z,15.64
2024-04-26T09:36:23.014Z,15.69
2024-04-26T09:38:52.383Z,15.67
2024-04-26T09:41:20.997Z,15.70
2024-04-26T09:43:48.479Z,15.69
2024-04-26T09:46:18.455Z,15.66
2024-04-26T09:48:47.004Z,15.77
2024-04-26T09:51:16.383Z,15.94
2024-04-26T09:53:46.070Z,16.09
2024-04-26T09:56:13.619Z,16.23
2024-04-26T09:58:41.277Z,16.35
2024-04-26T10:01:10.101Z,16.62
2024-04-26T10:03:39.387Z,16.67
2024-04-26T10:06:14.085Z,16.78
2024-04-26T10:08:42.036Z,16.72
2024-04-26T10:11:25.072Z,16.69
2024-04-26T10:13:58.228Z,16.75
2024-04-26T10:16:33.911Z,16.85
2024-04-26T10:19:00.986Z,17.01
2024-04-26T10:21:29.060Z,17.03
2024-04-26T10:24:01.000Z,16.86
2024-04-26T10:26:28.426Z,16.91
2024-04-26T10:28:56.440Z,16.80
2024-04-26T10:31:30.505Z,16.97
2024-04-26T10:33:58.608Z,17.08
2024-04-26T10:36:25.849Z,17.18
2024-04-26T10:38:52.741Z,17.27
2024-04-26T10:41:20.819Z,17.30
2024-04-26T10:43:48.670Z,17.42
2024-04-26T10:46:19.732Z,17.47
2024-04-26T10:48:46.788Z,17.49
2024-04-26T10:51:14.793Z,17.54
2024-04-26T10:53:43.955Z,17.56
2024-04-26T10:56:19.256Z,17.42
2024-04-26T10:58:46.916Z,17.48
2024-04-26T11:01:24.665Z,17.49
2024-04-26T11:03:56.862Z,17.52
2024-04-26T11:06:32.359Z,17.67
2024-04-26T11:09:12.557Z,17.83
2024-04-26T11:11:42.139Z,17.51
2024-04-26T11:14:09.041Z,17.03
2024-04-26T11:16:35.878Z,17.02
2024-04-26T11:19:02.971Z,17.24
2024-04-26T11:21:29.939Z,17.50
2024-04-26T11:23:56.741Z,17.82
2024-04-26T11:26:23.626Z,17.96
2024-04-26T11:28:50.466Z,17.91
2024-04-26T11:31:17.284Z,18.05
2024-04-26T11:33:45.323Z,18.15
2024-04-26T11:36:13.074Z,18.13
2024-04-26T11:38:40.325Z,17.94
2024-04-26T11:41:07.981Z,17.95
2024-04-26T11:43:34.834Z,18.05
2024-04-26T11:46:01.748Z,17.86
2024-04-26T11:48:28.751Z,17.78
2024-04-26T11:50:56.456Z,17.47
2024-04-26T11:53:23.688Z,17.46
2024-04-26T11:55:50.640Z,17.46
2024-04-26T11:58:17.528Z,17.54
2024-04-26T12:00:44.505Z,17.63
2024-04-26T12:03:13.819Z,17.82
2024-04-26T12:05:42.933Z,17.94
2024-04-26T12:08:09.983Z,18.06
2024-04-26T12:10:36.857Z,17.91
2024-04-26T12:13:03.831Z,18.00
2024-04-26T12:15:30.968Z,18.02
2024-04-26T12:17:58.153Z,18.09
2024-04-26T12:20:25.262Z,17.99
2024-04-26T12:22:52.113Z,18.02
2024-04-26T12:25:18.924Z,17.97
2024-04-26T12:27:45.732Z,17.76
2024-04-26T12:30:12.658Z,17.77
2024-04-26T12:32:39.709Z,17.64
2024-04-26T12:35:06.811Z,17.64
2024-04-26T12:37:33.643Z,17.65
2024-04-26T12:40:01.290Z,17.56
2024-04-26T12:42:28.263Z,17.69
2024-04-26T12:44:55.164Z,17.77
2024-04-26T12:47:23.155Z,17.75
2024-04-26T12:49:49.977Z,17.50
2024-04-26T12:52:18.094Z,17.69
2024-04-26T12:54:45.579Z,17.77
2024-04-26T12:57:13.013Z,17.80
2024-04-26T12:59:40.334Z,17.83
2024-04-26T13:02:07.395Z,17.97
2024-04-26T13:04:38.538Z,17.98
2024-04-26T13:07:05.687Z,18.07
2024-04-26T13:09:33.166Z,17.95
2024-04-26T13:12:00.373Z,17.77
2024-04-26T13:14:27.350Z,17.93
2024-04-26T13:16:54.280Z,18.28
2024-04-26T13:19:26.316Z,18.34
2024-04-26T13:21:53.303Z,18.48
2024-04-26T13:24:20.238Z,18.46
2024-04-26T13:26:48.718Z,18.41
2024-04-26T13:29:19.524Z,18.21
2024-04-26T13:31:50.416Z,17.99
2024-04-26T13:34:17.852Z,18.10
2024-04-26T13:36:44.763Z,18.24
2024-04-26T13:39:12.821Z,18.30
2024-04-26T13:41:40.407Z,18.11
2024-04-26T13:44:08.556Z,17.94
2024-04-26T13:46:40.286Z,17.72
2024-04-26T13:49:07.602Z,17.87
2024-04-26T13:51:34.953Z,17.91
2024-04-26T13:54:02.138Z,18.04
2024-04-26T13:56:29.029Z,17.87
2024-04-26T13:58:55.841Z,17.82
2024-04-26T14:01:22.820Z,18.02
2024-04-26T14:03:49.708Z,18.08
2024-04-26T14:06:19.871Z,18.05
2024-04-26T14:08:50.786Z,18.10
2024-04-26T14:11:18.546Z,18.07
2024-04-26T14:13:46.192Z,18.03
2024-04-26T14:16:17.723Z,18.23
2024-04-26T14:18:50.165Z,18.20
2024-04-26T14:21:18.910Z,18.21
2024-04-26T14:23:46.719Z,18.20
2024-04-26T14:26:24.267Z,18.18
2024-04-26T14:28:51.904Z,18.24
2024-04-26T14:31:19.692Z,18.44
2024-04-26T14:33:47.696Z,18.50
2024-04-26T14:36:14.444Z,18.46
2024-04-26T14:38:41.283Z,18.55
2024-04-26T14:41:09.736Z,18.61
2024-04-26T14:43:39.295Z,18.84
2024-04-26T14:46:06.341Z,18.67
2024-04-26T14:48:33.408Z,18.74
2024-04-26T14:51:00.315Z,18.90
2024-04-26T14:53:27.055Z,18.57
2024-04-26T14:55:54.073Z,18.32
2024-04-26T14:58:21.041Z,17.92
2024-04-26T15:00:47.896Z,17.48
2024-04-26T15:03:14.698Z,16.99
2024-04-26T15:05:41.523Z,16.88
2024-04-26T15:08:08.320Z,16.67
2024-04-26T15:10:35.177Z,16.47
2024-04-26T15:13:01.946Z,16.26
2024-04-26T15:15:28.681Z,16.37
2024-04-26T15:17:55.934Z,16.43
2024-04-26T15:20:24.306Z,16.27
2024-04-26T15:22:51.140Z,16.13
2024-04-26T15:25:17.961Z,15.96
2024-04-26T15:27:44.706Z,16.47
2024-04-26T15:30:11.532Z,16.60
2024-04-26T15:32:38.881Z,17.00
2024-04-26T15:35:06.191Z,16.90
2024-04-26T15:37:32.980Z,16.83
2024-04-26T15:39:59.939Z,16.63
2024-04-26T15:42:26.700Z,16.49
2024-04-26T15:44:53.424Z,16.66
2024-04-26T15:47:21.383Z,16.75
2024-04-26T15:49:48.401Z,16.70
2024-04-26T15:52:16.033Z,16.74
2024-04-26T15:54:47.264Z,16.70
2024-04-26T15:57:14.439Z,16.73
2024-04-26T15:59:41.468Z,16.66
2024-04-26T16:02:08.412Z,16.81
2024-04-26T16:04:35.487Z,17.53
2024-04-26T16:07:04.476Z,18.26
2024-04-26T16:09:31.887Z,18.89
2024-04-26T16:11:59.782Z,19.31
2024-04-26T16:14:26.696Z,19.06
2024-04-26T16:16:54.695Z,18.61
2024-04-26T16:19:21.547Z,17.67
2024-04-26T16:21:48.381Z,17.27
2024-04-26T16:24:15.200Z,16.96
2024-04-26T16:26:41.955Z,16.96
2024-04-26T16:29:10.040Z,16.74
2024-04-26T16:31:36.910Z,16.49
2024-04-26T16:34:03.686Z,16.55
2024-04-26T16:36:30.911Z,16.42
2024-04-26T16:39:01.949Z,16.58
2024-04-26T16:41:29.025Z,16.75
2024-04-26T16:43:57.773Z,17.01
2024-04-26T16:46:27.825Z,17.13
2024-04-26T16:48:58.303Z,16.71
2024-04-26T16:51:30.271Z,16.71
2024-04-26T16:54:00.171Z,16.82
2024-04-26T16:56:28.309Z,16.81
2024-04-26T16:58:55.483Z,16.65
2024-04-26T17:01:23.446Z,16.36
2024-04-26T17:03:51.333Z,15.90
2024-04-26T17:06:19.152Z,15.70
2024-04-26T17:08:47.237Z,15.66
2024-04-26T17:11:15.557Z,15.23
2024-04-26T17:13:42.416Z,14.96
2024-04-26T17:16:09.227Z,14.73
2024-04-26T17:18:39.658Z,14.45
2024-04-26T17:21:07.286Z,14.26
2024-04-26T17:23:34.486Z,14.06
2024-04-26T17:26:01.603Z,13.91
2024-04-26T17:28:33.260Z,13.75
2024-04-26T17:31:00.468Z,13.55
2024-04-26T17:33:27.516Z,13.34
2024-04-26T17:35:54.350Z,13.23
2024-04-26T17:40:52.012Z,12.93
2024-04-26T17:43:19.227Z,12.66
2024-04-26T17:45:45.953Z,12.44
2024-04-26T17:48:12.785Z,12.15
2024-04-26T17:50:46.998Z,11.99
2024-04-26T17:53:19.433Z,11.74
2024-04-26T17:55:46.207Z,11.56
2024-04-26T17:58:13.041Z,11.41
2024-04-26T18:00:39.833Z,11.27
2024-04-26T18:03:06.645Z,11.17
2024-04-26T18:05:33.500Z,11.13
2024-04-26T18:08:02.906Z,11.08
2024-04-26T18:10:29.778Z,10.95
2024-04-26T18:12:56.546Z,10.86
2024-04-26T18:15:23.319Z,10.82
2024-04-26T18:17:52.848Z,10.79
2024-04-26T18:20:21.690Z,10.75
2024-04-26T18:22:48.582Z,10.68
2024-04-26T18:25:15.484Z,10.72
2024-04-26T18:27:42.830Z,10.68
2024-04-26T18:30:09.975Z,10.58
2024-04-26T18:32:36.912Z,10.58
2024-04-26T18:35:04.062Z,10.48
2024-04-26T18:37:31.048Z,10.32
2024-04-26T18:39:57.863Z,10.20
2024-04-26T18:42:24.698Z,10.08
2024-04-26T18:44:51.581Z,9.98
2024-04-26T18:47:18.506Z,9.98
2024-04-26T18:49:46.953Z,9.93
2024-04-26T18:52:15.479Z,9.82
2024-04-26T18:54:45.832Z,9.79
2024-04-26T18:57:12.610Z,9.77
2024-04-26T18:59:39.397Z,9.83
2024-04-26T19:02:06.326Z,9.72
2024-04-26T19:04:35.892Z,9.75
2024-04-26T19:07:04.744Z,9.65
2024-04-26T19:09:31.509Z,9.69
2024-04-26T19:11:58.345Z,9.77
2024-04-26T19:14:25.101Z,9.76
2024-04-26T19:16:52.081Z,9.75
2024-04-26T19:19:18.879Z,9.61
2024-04-26T19:21:46.487Z,9.56
2024-04-26T19:24:13.230Z,9.52
2024-04-26T19:26:40.689Z,9.37
2024-04-26T19:29:07.610Z,9.25
2024-04-26T19:31:34.370Z,9.20
2024-04-26T19:34:01.135Z,9.16
2024-04-26T19:36:27.865Z,9.14
2024-04-26T19:38:54.636Z,8.98
2024-04-26T19:41:24.048Z,8.97
2024-04-26T19:43:52.381Z,9.04
2024-04-26T19:46:19.271Z,9.00
2024-04-26T19:48:46.088Z,8.96
2024-04-26T19:51:12.944Z,9.01
2024-04-26T19:53:58.262Z,9.13
2024-04-26T19:56:25.382Z,8.99
2024-04-26T19:58:52.271Z,8.88
2024-04-26T20:01:19.229Z,8.81
2024-04-26T20:03:46.119Z,8.90
2024-04-26T20:06:13.735Z,9.10
2024-04-26T20:08:40.594Z,8.96
2024-04-26T20:11:10.088Z,8.87
2024-04-26T20:13:37.166Z,8.71
2024-04-26T20:16:04.189Z,8.61
2024-04-26T20:18:31.079Z,8.63
2024-04-26T20:20:57.884Z,8.66
2024-04-26T20:23:24.630Z,8.61
2024-04-26T20:25:51.487Z,8.53
2024-04-26T20:28:19.792Z,8.57
2024-04-26T20:30:48.588Z,8.55
2024-04-26T20:33:15.506Z,8.48
2024-04-26T20:35:42.325Z,8.40
2024-04-26T20:38:09.232Z,8.49
2024-04-26T20:40:36.099Z,8.56
2024-04-26T20:43:02.917Z,8.50
2024-04-26T20:45:29.734Z,8.39
2024-04-26T20:47:56.578Z,8.36
2024-04-26T20:50:23.352Z,8.21
2024-04-26T20:52:50.146Z,8.10
2024-04-26T20:55:16.979Z,8.04
2024-04-26T20:57:45.391Z,7.96
2024-04-26T21:00:12.456Z,7.97
2024-04-26T21:02:39.311Z,7.85
2024-04-26T21:05:06.888Z,7.77
2024-04-26T21:07:37.483Z,7.84
2024-04-26T21:10:05.824Z,7.87
2024-04-26T21:12:32.926Z,7.80
2024-04-26T21:15:00.726Z,7.87
2024-04-26T21:17:27.614Z,7.83
2024-04-26T21:19:54.895Z,7.83
2024-04-26T21:22:21.779Z,7.84
2024-04-26T21:24:48.564Z,7.72
2024-04-26T21:27:15.329Z,7.70
2024-04-26T21:29:45.818Z,7.73
2024-04-26T21:32:12.724Z,7.82
2024-04-26T21:34:39.537Z,7.87
2024-04-26T21:37:06.399Z,7.80
2024-04-26T21:39:33.170Z,7.75
2024-04-26T21:41:59.927Z,7.72
2024-04-26T21:44:26.710Z,7.64
2024-04-26T21:46:53.875Z,7.64
2024-04-26T21:49:21.763Z,7.54
2024-04-26T21:51:48.753Z,7.47
2024-04-26T21:54:15.561Z,7.44
2024-04-26T21:56:43.976Z,7.50
2024-04-26T21:59:16.136Z,7.52
2024-04-26T22:01:46.791Z,7.41
2024-04-26T22:04:13.868Z,7.37
2024-04-26T22:06:40.656Z,7.35
2024-04-26T22:09:08.169Z,7.25
2024-04-26T22:11:35.328Z,7.13
2024-04-26T22:14:02.304Z,7.28
2024-04-26T22:16:29.171Z,7.37
2024-04-26T22:18:55.938Z,7.25
2024-04-26T22:21:22.672Z,7.16
2024-04-26T22:23:49.452Z,7.29
2024-04-26T22:26:16.585Z,7.35
2024-04-26T22:28:43.524Z,7.31
2024-04-26T22:31:10.478Z,7.30
2024-04-26T22:33:38.258Z,7.35
2024-04-26T22:36:06.003Z,7.34
2024-04-26T22:38:32.828Z,7.24
2024-04-26T22:40:59.801Z,7.08
2024-04-26T22:43:26.811Z,7.07
2024-04-26T22:45:56.428Z,7.13
2024-04-26T22:48:23.914Z,7.29
2024-04-26T22:50:50.818Z,7.31
2024-04-26T22:53:18.124Z,7.47
2024-04-26T22:55:45.079Z,7.61
2024-04-26T22:58:11.866Z,7.69
2024-04-26T23:00:38.696Z,7.67
2024-04-26T23:03:05.581Z,7.72
2024-04-26T23:05:32.340Z,7.61
2024-04-26T23:08:00.591Z,7.57
2024-04-26T23:10:28.120Z,7.56
2024-04-26T23:12:54.992Z,7.57
2024-04-26T23:15:21.737Z,7.56
2024-04-26T23:17:48.544Z,7.46
2024-04-26T23:20:15.502Z,7.39
2024-04-26T23:22:42.329Z,7.35
2024-04-26T23:25:09.164Z,7.40
2024-04-26T23:27:35.936Z,7.40
2024-04-26T23:30:05.930Z,7.34
2024-04-26T23:32:33.492Z,7.29
2024-04-26T23:35:00.598Z,7.26
2024-04-26T23:37:27.523Z,7.21
2024-04-26T23:39:54.353Z,7.19
2024-04-26T23:42:21.079Z,7.27
2024-04-26T23:44:47.909Z,7.32
2024-04-26T23:47:14.762Z,7.29
2024-04-26T23:49:41.609Z,7.25
2024-04-26T23:52:08.507Z,7.22
2024-04-26T23:54:35.259Z,7.20
2024-04-26T23:57:02.016Z,7.22
2024-04-26T23:59:29.307Z,7.33
